マナウス の空港の天気 - METARとTAF

エドワルド ゴメス国際空港(マナウス) ( SBEG / MAO ) - ブラジル アマゾナス州マナウス
飛行場実況気象(Metar)
観測時間09/24 23:00 AMT (09/25 03:00 UTC)
風向・風速北西 1m/s
視程10km以上
天気現象
なし
気温25℃
湿度89%
気圧1011hPa
METARSBEG 250300Z 31002KT CAVOK 25/23 Q1011
過去の天気等 Google飛行場航空写真 Wunderground天気予報

過去48時間のMETAR

飛行場予報(TAF)
発表時間: 9/24 18:00 AMT (9/24 22:00 UTC)
予報対象時間: 24日20時 AMT ~ 25日20時 AMT
風向・風速静穏
視程10km以上
なし
25日5時 AMT ~ 25日7時 AMT に徐々に
風向・風速北東 2m/s
25日9時 AMT ~ 25日11時 AMT に徐々に
風向・風速東北東 3m/s
全天の4割程度の雲 雲底高度 760m
25日14時 AMT ~ 25日16時 AMT に徐々に
風向・風速東 4m/s
全天の4割程度の雲 雲底高度 760m
少しの塔状積雲 雲底高度 910m
25日18時 AMT ~ 25日20時 AMT に徐々に
視程10km以上
なし
TAF SBEG 242200Z 2500/2524 00000KT CAVOK TN22/2508Z TX35/2518Z
BECMG 2509/2511 04003KT
BECMG 2513/2515 06006KT SCT025
BECMG 2518/2520 09008KT SCT025 FEW030TCU
BECMG 2522/2524 CAVOK RMK PFM